sensor_id;sensor_type;location;lat;lon;timestamp;temperature;humidity
46055;DHT22;31788;6.954;-71.872;2022-09-09T00:02:24;28.10;99.60
46055;DHT22;31788;6.954;-71.872;2022-09-09T00:07:52;28.10;99.70
46055;DHT22;31788;6.954;-71.872;2022-09-09T00:10:34;28.10;99.70
46055;DHT22;31788;6.954;-71.872;2022-09-09T00:13:37;28.10;99.70
46055;DHT22;31788;6.954;-71.872;2022-09-09T00:16:21;28.00;99.70
46055;DHT22;31788;6.954;-71.872;2022-09-09T00:19:02;28.10;99.70
46055;DHT22;31788;6.954;-71.872;2022-09-09T00:21:39;28.00;99.80
46055;DHT22;31788;6.954;-71.872;2022-09-09T00:24:38;28.10;99.80
46055;DHT22;31788;6.954;-71.872;2022-09-09T00:32:40;28.00;99.90
46055;DHT22;31788;6.954;-71.872;2022-09-09T00:37:47;28.00;99.90
46055;DHT22;31788;6.954;-71.872;2022-09-09T00:40:34;27.90;99.90
46055;DHT22;31788;6.954;-71.872;2022-09-09T00:46:25;27.90;99.90
46055;DHT22;31788;6.954;-71.872;2022-09-09T00:51:38;27.90;99.90
46055;DHT22;31788;6.954;-71.872;2022-09-09T00:57:44;27.80;99.90
46055;DHT22;31788;6.954;-71.872;2022-09-09T00:59:50;27.80;99.90
46055;DHT22;31788;6.954;-71.872;2022-09-09T01:04:54;27.80;99.90
46055;DHT22;31788;6.954;-71.872;2022-09-09T01:07:20;27.80;99.90
46055;DHT22;31788;6.954;-71.872;2022-09-09T01:12:38;27.80;99.90
46055;DHT22;31788;6.954;-71.872;2022-09-09T01:15:29;27.70;99.90
46055;DHT22;31788;6.954;-71.872;2022-09-09T01:18:13;27.80;99.90
46055;DHT22;31788;6.954;-71.872;2022-09-09T01:23:42;27.70;99.90
46055;DHT22;31788;6.954;-71.872;2022-09-09T01:29:09;27.70;99.90
46055;DHT22;31788;6.954;-71.872;2022-09-09T01:31:38;27.70;99.90
46055;DHT22;31788;6.954;-71.872;2022-09-09T01:34:11;27.60;99.90
46055;DHT22;31788;6.954;-71.872;2022-09-09T01:36:43;27.60;99.90
46055;DHT22;31788;6.954;-71.872;2022-09-09T01:39:12;27.60;99.90
46055;DHT22;31788;6.954;-71.872;2022-09-09T01:41:39;27.60;99.90
46055;DHT22;31788;6.954;-71.872;2022-09-09T01:44:08;27.60;99.90
46055;DHT22;31788;6.954;-71.872;2022-09-09T01:46:35;27.60;99.90
46055;DHT22;31788;6.954;-71.872;2022-09-09T01:49:20;27.50;99.90
46055;DHT22;31788;6.954;-71.872;2022-09-09T01:58:07;27.50;99.90
46055;DHT22;31788;6.954;-71.872;2022-09-09T02:00:42;27.40;99.90
46055;DHT22;31788;6.954;-71.872;2022-09-09T02:03:27;27.40;99.90
46055;DHT22;31788;6.954;-71.872;2022-09-09T02:06:27;27.40;99.90
46055;DHT22;31788;6.954;-71.872;2022-09-09T02:08:56;27.30;99.90
46055;DHT22;31788;6.954;-71.872;2022-09-09T02:11:26;27.30;99.90
46055;DHT22;31788;6.954;-71.872;2022-09-09T02:13:59;27.30;99.90
46055;DHT22;31788;6.954;-71.872;2022-09-09T02:21:35;27.20;99.90
46055;DHT22;31788;6.954;-71.872;2022-09-09T02:24:05;27.20;99.90
46055;DHT22;31788;6.954;-71.872;2022-09-09T02:26:40;27.20;99.90
46055;DHT22;31788;6.954;-71.872;2022-09-09T02:29:16;27.20;99.90
46055;DHT22;31788;6.954;-71.872;2022-09-09T02:31:46;27.20;99.90
46055;DHT22;31788;6.954;-71.872;2022-09-09T02:34:14;27.20;99.90
46055;DHT22;31788;6.954;-71.872;2022-09-09T02:36:43;27.10;99.90
46055;DHT22;31788;6.954;-71.872;2022-09-09T02:39:11;27.10;99.90
46055;DHT22;31788;6.954;-71.872;2022-09-09T02:41:41;27.10;99.90
46055;DHT22;31788;6.954;-71.872;2022-09-09T02:44:15;27.10;99.90
46055;DHT22;31788;6.954;-71.872;2022-09-09T02:52:30;27.10;99.90
46055;DHT22;31788;6.954;-71.872;2022-09-09T02:55:06;27.10;99.90
46055;DHT22;31788;6.954;-71.872;2022-09-09T02:57:35;27.10;99.90
46055;DHT22;31788;6.954;-71.872;2022-09-09T03:00:03;27.00;99.90
46055;DHT22;31788;6.954;-71.872;2022-09-09T03:02:31;27.00;99.90
46055;DHT22;31788;6.954;-71.872;2022-09-09T03:04:57;27.00;99.90
46055;DHT22;31788;6.954;-71.872;2022-09-09T03:07:24;26.90;99.90
46055;DHT22;31788;6.954;-71.872;2022-09-09T03:09:51;26.90;99.90
46055;DHT22;31788;6.954;-71.872;2022-09-09T03:12:20;26.90;99.90
46055;DHT22;31788;6.954;-71.872;2022-09-09T03:14:49;26.80;99.90
46055;DHT22;31788;6.954;-71.872;2022-09-09T03:17:16;26.80;99.90
46055;DHT22;31788;6.954;-71.872;2022-09-09T03:19:42;26.80;99.90
46055;DHT22;31788;6.954;-71.872;2022-09-09T03:22:11;26.80;99.90
46055;DHT22;31788;6.954;-71.872;2022-09-09T03:24:40;26.80;99.90
46055;DHT22;31788;6.954;-71.872;2022-09-09T03:27:07;26.70;99.90
46055;DHT22;31788;6.954;-71.872;2022-09-09T03:29:34;26.70;99.90
46055;DHT22;31788;6.954;-71.872;2022-09-09T03:32:00;26.70;99.90
46055;DHT22;31788;6.954;-71.872;2022-09-09T03:34:27;26.70;99.90
46055;DHT22;31788;6.954;-71.872;2022-09-09T03:36:54;26.70;99.90
46055;DHT22;31788;6.954;-71.872;2022-09-09T03:39:22;26.60;99.90
46055;DHT22;31788;6.954;-71.872;2022-09-09T03:41:49;26.60;99.90
46055;DHT22;31788;6.954;-71.872;2022-09-09T03:44:16;26.60;99.90
46055;DHT22;31788;6.954;-71.872;2022-09-09T03:46:42;26.50;99.90
46055;DHT22;31788;6.954;-71.872;2022-09-09T03:49:09;26.50;99.90
46055;DHT22;31788;6.954;-71.872;2022-09-09T03:51:36;26.50;99.90
46055;DHT22;31788;6.954;-71.872;2022-09-09T03:54:04;26.50;99.90
46055;DHT22;31788;6.954;-71.872;2022-09-09T03:56:34;26.50;99.90
46055;DHT22;31788;6.954;-71.872;2022-09-09T03:59:01;26.50;99.90
46055;DHT22;31788;6.954;-71.872;2022-09-09T04:01:28;26.50;99.90
46055;DHT22;31788;6.954;-71.872;2022-09-09T04:03:55;26.50;99.90
46055;DHT22;31788;6.954;-71.872;2022-09-09T04:06:24;26.40;99.90
46055;DHT22;31788;6.954;-71.872;2022-09-09T04:08:51;26.40;99.90
46055;DHT22;31788;6.954;-71.872;2022-09-09T04:11:18;26.30;99.90
46055;DHT22;31788;6.954;-71.872;2022-09-09T04:13:45;26.30;99.90
46055;DHT22;31788;6.954;-71.872;2022-09-09T04:16:13;26.20;99.90
46055;DHT22;31788;6.954;-71.872;2022-09-09T04:18:40;26.20;99.90
46055;DHT22;31788;6.954;-71.872;2022-09-09T04:21:08;26.20;99.90
46055;DHT22;31788;6.954;-71.872;2022-09-09T04:23:36;26.10;99.90
46055;DHT22;31788;6.954;-71.872;2022-09-09T04:26:03;26.10;99.90
46055;DHT22;31788;6.954;-71.872;2022-09-09T04:28:32;26.10;99.90
46055;DHT22;31788;6.954;-71.872;2022-09-09T04:31:05;26.10;99.90
46055;DHT22;31788;6.954;-71.872;2022-09-09T04:33:32;26.10;99.90
46055;DHT22;31788;6.954;-71.872;2022-09-09T04:35:58;26.10;99.90
46055;DHT22;31788;6.954;-71.872;2022-09-09T04:38:25;26.10;99.90
46055;DHT22;31788;6.954;-71.872;2022-09-09T04:40:52;26.00;99.90
46055;DHT22;31788;6.954;-71.872;2022-09-09T04:43:20;26.00;99.90
46055;DHT22;31788;6.954;-71.872;2022-09-09T04:45:50;26.00;99.90
46055;DHT22;31788;6.954;-71.872;2022-09-09T04:48:18;26.00;99.90
46055;DHT22;31788;6.954;-71.872;2022-09-09T04:51:14;26.00;99.90
46055;DHT22;31788;6.954;-71.872;2022-09-09T04:53:40;26.00;99.90
46055;DHT22;31788;6.954;-71.872;2022-09-09T04:56:09;26.00;99.90
46055;DHT22;31788;6.954;-71.872;2022-09-09T04:58:36;26.00;99.90
46055;DHT22;31788;6.954;-71.872;2022-09-09T05:01:10;26.00;99.90
46055;DHT22;31788;6.954;-71.872;2022-09-09T05:03:38;26.00;99.90
46055;DHT22;31788;6.954;-71.872;2022-09-09T05:06:09;26.00;99.90
46055;DHT22;31788;6.954;-71.872;2022-09-09T05:08:38;26.00;99.90
46055;DHT22;31788;6.954;-71.872;2022-09-09T05:11:20;26.00;99.90
46055;DHT22;31788;6.954;-71.872;2022-09-09T05:13:48;26.00;99.90
46055;DHT22;31788;6.954;-71.872;2022-09-09T05:16:16;26.10;99.90
46055;DHT22;31788;6.954;-71.872;2022-09-09T05:18:43;26.20;99.90
46055;DHT22;31788;6.954;-71.872;2022-09-09T05:21:11;26.20;99.90
46055;DHT22;31788;6.954;-71.872;2022-09-09T05:23:39;26.20;99.90
46055;DHT22;31788;6.954;-71.872;2022-09-09T05:26:06;26.20;99.90
46055;DHT22;31788;6.954;-71.872;2022-09-09T05:28:36;26.20;99.90
46055;DHT22;31788;6.954;-71.872;2022-09-09T05:31:08;26.30;99.90
46055;DHT22;31788;6.954;-71.872;2022-09-09T05:33:36;26.30;99.90
46055;DHT22;31788;6.954;-71.872;2022-09-09T05:36:07;26.20;99.90
46055;DHT22;31788;6.954;-71.872;2022-09-09T05:38:35;26.20;99.90
46055;DHT22;31788;6.954;-71.872;2022-09-09T05:41:02;26.10;99.90
46055;DHT22;31788;6.954;-71.872;2022-09-09T05:43:29;26.20;99.90
46055;DHT22;31788;6.954;-71.872;2022-09-09T05:46:19;26.20;99.90
46055;DHT22;31788;6.954;-71.872;2022-09-09T05:48:47;26.10;99.90
46055;DHT22;31788;6.954;-71.872;2022-09-09T05:51:18;26.10;99.90
46055;DHT22;31788;6.954;-71.872;2022-09-09T05:53:45;26.00;99.90
46055;DHT22;31788;6.954;-71.872;2022-09-09T05:56:17;26.00;99.90
46055;DHT22;31788;6.954;-71.872;2022-09-09T05:58:44;26.00;99.90
46055;DHT22;31788;6.954;-71.872;2022-09-09T06:01:33;25.90;99.90
46055;DHT22;31788;6.954;-71.872;2022-09-09T06:04:00;26.00;99.90
46055;DHT22;31788;6.954;-71.872;2022-09-09T06:06:35;25.90;99.90
46055;DHT22;31788;6.954;-71.872;2022-09-09T06:09:03;25.90;99.90
46055;DHT22;31788;6.954;-71.872;2022-09-09T06:11:33;25.90;99.90
46055;DHT22;31788;6.954;-71.872;2022-09-09T06:14:01;25.90;99.90
46055;DHT22;31788;6.954;-71.872;2022-09-09T06:16:30;25.90;99.90
46055;DHT22;31788;6.954;-71.872;2022-09-09T06:18:59;25.90;99.90
46055;DHT22;31788;6.954;-71.872;2022-09-09T06:21:27;25.90;99.90
46055;DHT22;31788;6.954;-71.872;2022-09-09T06:23:55;25.90;99.90
46055;DHT22;31788;6.954;-71.872;2022-09-09T06:26:27;25.90;99.90
46055;DHT22;31788;6.954;-71.872;2022-09-09T06:28:55;25.90;99.90
46055;DHT22;31788;6.954;-71.872;2022-09-09T06:31:24;25.90;99.90
46055;DHT22;31788;6.954;-71.872;2022-09-09T06:33:52;25.90;99.90
46055;DHT22;31788;6.954;-71.872;2022-09-09T06:36:24;25.80;99.90
46055;DHT22;31788;6.954;-71.872;2022-09-09T06:38:51;25.80;99.90
46055;DHT22;31788;6.954;-71.872;2022-09-09T06:41:19;25.70;99.90
46055;DHT22;31788;6.954;-71.872;2022-09-09T06:43:47;25.80;99.90
46055;DHT22;31788;6.954;-71.872;2022-09-09T06:46:15;25.80;99.90
46055;DHT22;31788;6.954;-71.872;2022-09-09T06:48:43;25.80;99.90
46055;DHT22;31788;6.954;-71.872;2022-09-09T06:51:16;25.80;99.90
46055;DHT22;31788;6.954;-71.872;2022-09-09T06:53:45;25.80;99.90
46055;DHT22;31788;6.954;-71.872;2022-09-09T06:56:22;25.80;99.90
46055;DHT22;31788;6.954;-71.872;2022-09-09T06:58:51;25.80;99.90
46055;DHT22;31788;6.954;-71.872;2022-09-09T07:01:20;25.80;99.90
46055;DHT22;31788;6.954;-71.872;2022-09-09T07:03:48;25.70;99.90
46055;DHT22;31788;6.954;-71.872;2022-09-09T07:06:29;25.70;99.90
46055;DHT22;31788;6.954;-71.872;2022-09-09T07:09:02;25.70;99.90
46055;DHT22;31788;6.954;-71.872;2022-09-09T07:11:32;25.70;99.90
46055;DHT22;31788;6.954;-71.872;2022-09-09T07:14:00;25.70;99.90
46055;DHT22;31788;6.954;-71.872;2022-09-09T07:16:27;25.70;99.90
46055;DHT22;31788;6.954;-71.872;2022-09-09T07:18:55;25.70;99.90
46055;DHT22;31788;6.954;-71.872;2022-09-09T07:21:25;25.70;99.90
46055;DHT22;31788;6.954;-71.872;2022-09-09T07:23:55;25.70;99.90
46055;DHT22;31788;6.954;-71.872;2022-09-09T07:26:26;25.60;99.90
46055;DHT22;31788;6.954;-71.872;2022-09-09T07:28:53;25.60;99.90
46055;DHT22;31788;6.954;-71.872;2022-09-09T07:31:25;25.60;99.90
46055;DHT22;31788;6.954;-71.872;2022-09-09T07:33:52;25.60;99.90
46055;DHT22;31788;6.954;-71.872;2022-09-09T07:36:24;25.60;99.90
46055;DHT22;31788;6.954;-71.872;2022-09-09T07:38:54;25.70;99.90
46055;DHT22;31788;6.954;-71.872;2022-09-09T07:41:25;25.60;99.90
46055;DHT22;31788;6.954;-71.872;2022-09-09T07:43:53;25.70;99.90
46055;DHT22;31788;6.954;-71.872;2022-09-09T07:46:22;25.60;99.90
46055;DHT22;31788;6.954;-71.872;2022-09-09T07:48:54;25.60;99.90
46055;DHT22;31788;6.954;-71.872;2022-09-09T07:51:42;25.70;99.90
46055;DHT22;31788;6.954;-71.872;2022-09-09T07:54:11;25.70;99.90
46055;DHT22;31788;6.954;-71.872;2022-09-09T07:56:39;25.60;99.90
46055;DHT22;31788;6.954;-71.872;2022-09-09T07:59:06;25.60;99.90
46055;DHT22;31788;6.954;-71.872;2022-09-09T08:01:38;25.70;99.90
46055;DHT22;31788;6.954;-71.872;2022-09-09T08:04:08;25.80;99.90
46055;DHT22;31788;6.954;-71.872;2022-09-09T08:06:39;25.70;99.90
46055;DHT22;31788;6.954;-71.872;2022-09-09T08:09:07;25.70;99.90
46055;DHT22;31788;6.954;-71.872;2022-09-09T08:11:34;25.70;99.90
46055;DHT22;31788;6.954;-71.872;2022-09-09T08:14:02;25.70;99.90
46055;DHT22;31788;6.954;-71.872;2022-09-09T08:16:32;25.70;99.90
46055;DHT22;31788;6.954;-71.872;2022-09-09T08:18:59;25.70;99.90
46055;DHT22;31788;6.954;-71.872;2022-09-09T08:21:30;25.60;99.90
46055;DHT22;31788;6.954;-71.872;2022-09-09T08:23:59;25.60;99.90
46055;DHT22;31788;6.954;-71.872;2022-09-09T08:26:28;25.50;99.90
46055;DHT22;31788;6.954;-71.872;2022-09-09T08:28:57;25.60;99.90
46055;DHT22;31788;6.954;-71.872;2022-09-09T08:31:29;25.60;99.90
46055;DHT22;31788;6.954;-71.872;2022-09-09T08:33:57;25.50;99.90
46055;DHT22;31788;6.954;-71.872;2022-09-09T08:36:26;25.50;99.90
46055;DHT22;31788;6.954;-71.872;2022-09-09T08:38:55;25.50;99.90
46055;DHT22;31788;6.954;-71.872;2022-09-09T08:43:58;25.50;99.90
46055;DHT22;31788;6.954;-71.872;2022-09-09T08:46:44;25.50;99.90
46055;DHT22;31788;6.954;-71.872;2022-09-09T08:51:58;25.40;99.90
46055;DHT22;31788;6.954;-71.872;2022-09-09T08:54:29;25.40;99.90
46055;DHT22;31788;6.954;-71.872;2022-09-09T08:56:59;25.50;99.90
46055;DHT22;31788;6.954;-71.872;2022-09-09T08:59:25;25.50;99.90
46055;DHT22;31788;6.954;-71.872;2022-09-09T09:04:37;25.50;99.90
46055;DHT22;31788;6.954;-71.872;2022-09-09T09:07:32;25.50;99.90
46055;DHT22;31788;6.954;-71.872;2022-09-09T09:12:38;25.40;99.90
46055;DHT22;31788;6.954;-71.872;2022-09-09T09:15:14;25.30;99.90
46055;DHT22;31788;6.954;-71.872;2022-09-09T09:17:43;25.30;99.90
46055;DHT22;31788;6.954;-71.872;2022-09-09T09:20:14;25.30;99.90
46055;DHT22;31788;6.954;-71.872;2022-09-09T09:22:52;25.30;99.90
46055;DHT22;31788;6.954;-71.872;2022-09-09T09:25:33;25.30;99.90
46055;DHT22;31788;6.954;-71.872;2022-09-09T09:28:17;25.30;99.90
46055;DHT22;31788;6.954;-71.872;2022-09-09T09:31:00;25.40;99.90
46055;DHT22;31788;6.954;-71.872;2022-09-09T09:36:03;25.50;99.90
46055;DHT22;31788;6.954;-71.872;2022-09-09T09:38:33;25.40;99.90
46055;DHT22;31788;6.954;-71.872;2022-09-09T09:41:00;25.50;99.90
46055;DHT22;31788;6.954;-71.872;2022-09-09T09:43:32;25.40;99.90
46055;DHT22;31788;6.954;-71.872;2022-09-09T09:45:59;25.40;99.90
46055;DHT22;31788;6.954;-71.872;2022-09-09T09:48:27;25.30;99.90
46055;DHT22;31788;6.954;-71.872;2022-09-09T09:51:03;25.40;99.90
46055;DHT22;31788;6.954;-71.872;2022-09-09T09:53:34;25.40;99.90
46055;DHT22;31788;6.954;-71.872;2022-09-09T09:56:08;25.40;99.90
46055;DHT22;31788;6.954;-71.872;2022-09-09T09:58:50;25.40;99.90
46055;DHT22;31788;6.954;-71.872;2022-09-09T10:01:28;25.40;99.90
46055;DHT22;31788;6.954;-71.872;2022-09-09T10:04:22;25.30;99.90
46055;DHT22;31788;6.954;-71.872;2022-09-09T10:06:50;25.30;99.90
46055;DHT22;31788;6.954;-71.872;2022-09-09T10:09:30;25.30;99.90
46055;DHT22;31788;6.954;-71.872;2022-09-09T10:20:35;25.30;99.90
46055;DHT22;31788;6.954;-71.872;2022-09-09T10:35:03;25.30;99.90
46055;DHT22;31788;6.954;-71.872;2022-09-09T10:55:10;25.60;99.90
46055;DHT22;31788;6.954;-71.872;2022-09-09T11:00:23;25.60;99.90
46055;DHT22;31788;6.954;-71.872;2022-09-09T11:03:01;25.70;99.90
46055;DHT22;31788;6.954;-71.872;2022-09-09T11:08:21;25.80;99.90
46055;DHT22;31788;6.954;-71.872;2022-09-09T11:13:45;25.80;99.90
46055;DHT22;31788;6.954;-71.872;2022-09-09T11:16:39;25.80;99.90
46055;DHT22;31788;6.954;-71.872;2022-09-09T11:19:17;25.80;99.90
46055;DHT22;31788;6.954;-71.872;2022-09-09T11:21:48;25.90;99.90
46055;DHT22;31788;6.954;-71.872;2022-09-09T11:24:30;26.00;99.90
46055;DHT22;31788;6.954;-71.872;2022-09-09T11:38:21;26.10;99.90
46055;DHT22;31788;6.954;-71.872;2022-09-09T11:43:34;26.20;99.90
46055;DHT22;31788;6.954;-71.872;2022-09-09T11:46:05;26.20;99.90
46055;DHT22;31788;6.954;-71.872;2022-09-09T11:51:25;26.30;99.90
46055;DHT22;31788;6.954;-71.872;2022-09-09T11:56:50;26.40;99.90
46055;DHT22;31788;6.954;-71.872;2022-09-09T11:59:23;26.50;99.90
46055;DHT22;31788;6.954;-71.872;2022-09-09T12:01:56;26.50;99.90
46055;DHT22;31788;6.954;-71.872;2022-09-09T12:08:01;26.60;99.90
46055;DHT22;31788;6.954;-71.872;2022-09-09T12:12:54;26.70;99.90
46055;DHT22;31788;6.954;-71.872;2022-09-09T12:15:25;26.70;99.90
46055;DHT22;31788;6.954;-71.872;2022-09-09T12:17:57;26.70;99.90
46055;DHT22;31788;6.954;-71.872;2022-09-09T12:20:37;26.80;99.90
46055;DHT22;31788;6.954;-71.872;2022-09-09T12:26:07;26.90;99.90
46055;DHT22;31788;6.954;-71.872;2022-09-09T12:28:56;27.00;99.90
46055;DHT22;31788;6.954;-71.872;2022-09-09T12:34:44;27.40;99.90
46055;DHT22;31788;6.954;-71.872;2022-09-09T12:40:29;27.40;99.90
46055;DHT22;31788;6.954;-71.872;2022-09-09T12:42:40;27.40;99.90
46055;DHT22;31788;6.954;-71.872;2022-09-09T12:45:19;27.30;99.90
46055;DHT22;31788;6.954;-71.872;2022-09-09T12:47:58;27.30;99.90
46055;DHT22;31788;6.954;-71.872;2022-09-09T12:53:12;27.30;99.90
46055;DHT22;31788;6.954;-71.872;2022-09-09T12:55:53;27.30;99.90
46055;DHT22;31788;6.954;-71.872;2022-09-09T12:58:21;27.30;99.90
46055;DHT22;31788;6.954;-71.872;2022-09-09T13:00:52;27.30;99.90
46055;DHT22;31788;6.954;-71.872;2022-09-09T13:03:20;27.30;99.90
46055;DHT22;31788;6.954;-71.872;2022-09-09T13:05:47;27.30;99.90
46055;DHT22;31788;6.954;-71.872;2022-09-09T13:08:16;27.30;99.90
46055;DHT22;31788;6.954;-71.872;2022-09-09T13:10:59;27.30;99.90
46055;DHT22;31788;6.954;-71.872;2022-09-09T13:13:36;27.30;99.90
46055;DHT22;31788;6.954;-71.872;2022-09-09T13:16:05;27.30;99.90
46055;DHT22;31788;6.954;-71.872;2022-09-09T13:18:36;27.40;99.90
46055;DHT22;31788;6.954;-71.872;2022-09-09T13:21:05;27.30;99.90
46055;DHT22;31788;6.954;-71.872;2022-09-09T13:23:37;27.40;99.90
46055;DHT22;31788;6.954;-71.872;2022-09-09T13:26:06;27.40;99.90
46055;DHT22;31788;6.954;-71.872;2022-09-09T13:28:45;27.40;99.90
46055;DHT22;31788;6.954;-71.872;2022-09-09T13:31:29;27.40;99.90
46055;DHT22;31788;6.954;-71.872;2022-09-09T13:33:57;27.40;99.90
46055;DHT22;31788;6.954;-71.872;2022-09-09T13:36:31;27.50;99.90
46055;DHT22;31788;6.954;-71.872;2022-09-09T13:39:02;27.40;99.90
46055;DHT22;31788;6.954;-71.872;2022-09-09T13:41:41;27.50;99.90
46055;DHT22;31788;6.954;-71.872;2022-09-09T13:44:20;27.50;99.90
46055;DHT22;31788;6.954;-71.872;2022-09-09T13:47:03;27.50;99.90
46055;DHT22;31788;6.954;-71.872;2022-09-09T13:49:31;27.50;99.90
46055;DHT22;31788;6.954;-71.872;2022-09-09T13:52:15;27.50;99.90
46055;DHT22;31788;6.954;-71.872;2022-09-09T13:54:47;27.60;99.90
46055;DHT22;31788;6.954;-71.872;2022-09-09T13:57:22;27.60;99.90
46055;DHT22;31788;6.954;-71.872;2022-09-09T13:59:51;27.60;99.90
46055;DHT22;31788;6.954;-71.872;2022-09-09T14:02:18;27.60;99.90
46055;DHT22;31788;6.954;-71.872;2022-09-09T14:04:47;27.70;99.90
46055;DHT22;31788;6.954;-71.872;2022-09-09T14:07:17;27.70;99.90
46055;DHT22;31788;6.954;-71.872;2022-09-09T14:09:44;27.80;99.90
46055;DHT22;31788;6.954;-71.872;2022-09-09T14:12:16;27.80;99.90
46055;DHT22;31788;6.954;-71.872;2022-09-09T14:14:44;27.90;99.90
46055;DHT22;31788;6.954;-71.872;2022-09-09T14:17:11;27.90;99.90
46055;DHT22;31788;6.954;-71.872;2022-09-09T14:19:37;27.90;99.90
46055;DHT22;31788;6.954;-71.872;2022-09-09T14:22:04;27.90;99.90
46055;DHT22;31788;6.954;-71.872;2022-09-09T14:24:30;28.00;99.90
46055;DHT22;31788;6.954;-71.872;2022-09-09T14:26:57;28.00;99.90
46055;DHT22;31788;6.954;-71.872;2022-09-09T14:29:23;28.00;99.90
46055;DHT22;31788;6.954;-71.872;2022-09-09T14:31:52;28.00;99.90
46055;DHT22;31788;6.954;-71.872;2022-09-09T14:34:19;28.00;99.90
46055;DHT22;31788;6.954;-71.872;2022-09-09T14:36:45;28.10;99.90
46055;DHT22;31788;6.954;-71.872;2022-09-09T14:39:13;28.10;99.90
46055;DHT22;31788;6.954;-71.872;2022-09-09T14:41:39;28.10;99.90
46055;DHT22;31788;6.954;-71.872;2022-09-09T14:44:06;28.10;99.90
46055;DHT22;31788;6.954;-71.872;2022-09-09T14:46:32;28.20;99.90
46055;DHT22;31788;6.954;-71.872;2022-09-09T14:48:59;28.20;99.90
46055;DHT22;31788;6.954;-71.872;2022-09-09T14:51:27;28.20;99.90
46055;DHT22;31788;6.954;-71.872;2022-09-09T14:53:59;28.30;99.90
46055;DHT22;31788;6.954;-71.872;2022-09-09T14:56:27;28.30;99.90
46055;DHT22;31788;6.954;-71.872;2022-09-09T14:58:56;28.30;99.90
46055;DHT22;31788;6.954;-71.872;2022-09-09T15:01:24;28.40;99.90
46055;DHT22;31788;6.954;-71.872;2022-09-09T15:04:04;28.40;99.90
46055;DHT22;31788;6.954;-71.872;2022-09-09T15:06:33;28.40;99.90
46055;DHT22;31788;6.954;-71.872;2022-09-09T15:09:00;28.40;99.90
46055;DHT22;31788;6.954;-71.872;2022-09-09T15:11:28;28.40;99.90
46055;DHT22;31788;6.954;-71.872;2022-09-09T15:13:56;28.50;99.90
46055;DHT22;31788;6.954;-71.872;2022-09-09T15:16:26;28.50;99.90
46055;DHT22;31788;6.954;-71.872;2022-09-09T15:18:56;28.50;99.90
46055;DHT22;31788;6.954;-71.872;2022-09-09T15:21:25;28.60;99.90
46055;DHT22;31788;6.954;-71.872;2022-09-09T15:23:55;28.60;99.90
46055;DHT22;31788;6.954;-71.872;2022-09-09T15:26:24;28.60;99.90
46055;DHT22;31788;6.954;-71.872;2022-09-09T15:28:51;28.60;99.90
46055;DHT22;31788;6.954;-71.872;2022-09-09T15:31:23;28.60;99.90
46055;DHT22;31788;6.954;-71.872;2022-09-09T15:33:51;28.60;99.90
46055;DHT22;31788;6.954;-71.872;2022-09-09T15:36:22;28.60;99.90
46055;DHT22;31788;6.954;-71.872;2022-09-09T15:38:50;28.70;99.90
46055;DHT22;31788;6.954;-71.872;2022-09-09T15:41:18;28.70;99.90
46055;DHT22;31788;6.954;-71.872;2022-09-09T15:43:50;28.70;99.90
46055;DHT22;31788;6.954;-71.872;2022-09-09T15:46:55;28.70;99.90
46055;DHT22;31788;6.954;-71.872;2022-09-09T15:51:51;28.70;99.90
46055;DHT22;31788;6.954;-71.872;2022-09-09T15:54:19;28.70;99.90
46055;DHT22;31788;6.954;-71.872;2022-09-09T15:56:53;28.70;99.90
46055;DHT22;31788;6.954;-71.872;2022-09-09T15:59:22;28.70;99.90
46055;DHT22;31788;6.954;-71.872;2022-09-09T16:01:49;28.80;99.90
46055;DHT22;31788;6.954;-71.872;2022-09-09T16:04:19;28.80;99.90
46055;DHT22;31788;6.954;-71.872;2022-09-09T16:07:03;28.80;99.90
46055;DHT22;31788;6.954;-71.872;2022-09-09T16:09:31;28.80;99.90
46055;DHT22;31788;6.954;-71.872;2022-09-09T16:11:59;28.80;99.90
46055;DHT22;31788;6.954;-71.872;2022-09-09T16:14:33;28.80;99.90
46055;DHT22;31788;6.954;-71.872;2022-09-09T16:17:03;28.80;99.90
46055;DHT22;31788;6.954;-71.872;2022-09-09T16:19:29;28.80;99.90
46055;DHT22;31788;6.954;-71.872;2022-09-09T16:21:56;28.80;99.90
46055;DHT22;31788;6.954;-71.872;2022-09-09T16:24:23;28.80;99.90
46055;DHT22;31788;6.954;-71.872;2022-09-09T16:26:52;28.80;99.90
46055;DHT22;31788;6.954;-71.872;2022-09-09T16:29:22;28.80;99.90
46055;DHT22;31788;6.954;-71.872;2022-09-09T16:31:49;28.80;99.90
46055;DHT22;31788;6.954;-71.872;2022-09-09T16:34:17;28.80;99.90
46055;DHT22;31788;6.954;-71.872;2022-09-09T16:36:45;28.80;99.90
46055;DHT22;31788;6.954;-71.872;2022-09-09T16:39:14;28.80;99.90
46055;DHT22;31788;6.954;-71.872;2022-09-09T16:41:42;28.80;99.90
46055;DHT22;31788;6.954;-71.872;2022-09-09T16:44:11;28.80;99.90
46055;DHT22;31788;6.954;-71.872;2022-09-09T16:46:42;28.80;99.90
46055;DHT22;31788;6.954;-71.872;2022-09-09T16:49:13;28.80;99.90
46055;DHT22;31788;6.954;-71.872;2022-09-09T16:51:46;28.90;99.90
46055;DHT22;31788;6.954;-71.872;2022-09-09T16:54:14;28.90;99.90
46055;DHT22;31788;6.954;-71.872;2022-09-09T16:56:45;28.90;99.90
46055;DHT22;31788;6.954;-71.872;2022-09-09T16:59:15;28.90;99.90
46055;DHT22;31788;6.954;-71.872;2022-09-09T17:01:43;28.90;99.90
46055;DHT22;31788;6.954;-71.872;2022-09-09T17:04:15;29.00;99.90
46055;DHT22;31788;6.954;-71.872;2022-09-09T17:06:47;29.10;99.90
46055;DHT22;31788;6.954;-71.872;2022-09-09T17:09:15;29.10;99.90
46055;DHT22;31788;6.954;-71.872;2022-09-09T17:11:42;29.10;99.90
46055;DHT22;31788;6.954;-71.872;2022-09-09T17:14:13;29.20;99.90
46055;DHT22;31788;6.954;-71.872;2022-09-09T17:16:40;29.20;99.90
46055;DHT22;31788;6.954;-71.872;2022-09-09T17:19:09;29.30;99.90
46055;DHT22;31788;6.954;-71.872;2022-09-09T17:21:37;29.30;99.90
46055;DHT22;31788;6.954;-71.872;2022-09-09T17:24:03;29.40;99.90
46055;DHT22;31788;6.954;-71.872;2022-09-09T17:26:32;29.60;99.90
46055;DHT22;31788;6.954;-71.872;2022-09-09T17:29:02;29.70;99.70
46055;DHT22;31788;6.954;-71.872;2022-09-09T17:31:30;29.80;99.70
46055;DHT22;31788;6.954;-71.872;2022-09-09T17:33:58;29.80;99.90
46055;DHT22;31788;6.954;-71.872;2022-09-09T17:36:28;29.70;99.90
46055;DHT22;31788;6.954;-71.872;2022-09-09T17:38:56;29.70;99.90
46055;DHT22;31788;6.954;-71.872;2022-09-09T17:41:31;29.70;99.90
46055;DHT22;31788;6.954;-71.872;2022-09-09T17:43:58;29.60;99.90
46055;DHT22;31788;6.954;-71.872;2022-09-09T17:46:33;29.60;99.90
46055;DHT22;31788;6.954;-71.872;2022-09-09T17:49:04;29.60;99.90
46055;DHT22;31788;6.954;-71.872;2022-09-09T17:51:33;29.60;99.90
46055;DHT22;31788;6.954;-71.872;2022-09-09T17:54:05;29.60;99.90
46055;DHT22;31788;6.954;-71.872;2022-09-09T17:56:33;29.60;99.90
46055;DHT22;31788;6.954;-71.872;2022-09-09T17:59:02;29.60;99.90
46055;DHT22;31788;6.954;-71.872;2022-09-09T18:01:31;29.60;99.90
46055;DHT22;31788;6.954;-71.872;2022-09-09T18:04:03;29.60;99.90
46055;DHT22;31788;6.954;-71.872;2022-09-09T18:06:34;29.60;99.90
46055;DHT22;31788;6.954;-71.872;2022-09-09T18:09:06;29.60;99.90